Time;durP1;ratioP1;P1;durP2;ratioP2;P2;SDS_P1;SDS_P2;PMS_P1;PMS_P2;Temp;Humidity;BMP_temperature;BMP_pressure;BME280_temperature;BME280_humidity;BME280_pressure;Samples;Min_cycle;Max_cycle;Signal;HPM_P1;HPM_P2
2021/10/24 00:01:54;;;;;;;0.82;0.25;;;;;;;;;;5079291;28;20411;-53
2021/10/24 00:04:19;;;;;;;1.38;0.30;;;;;;;;;;5074604;28;20061;-54
2021/10/24 00:06:45;;;;;;;3.10;0.35;;;;;;;;;;5072746;28;20073;-54
2021/10/24 00:09:10;;;;;;;4.10;0.40;;;;;;;;;;5072918;28;20624;-53
2021/10/24 00:11:37;;;;;;;1.90;0.35;;;;;;;;;;5078215;28;20103;-53
2021/10/24 00:14:05;;;;;;;1.55;0.30;;;;;;;;;;5074400;28;20032;-52
2021/10/24 00:16:32;;;;;;;3.20;0.40;;;;;;;;;;5077360;28;20246;-50
2021/10/24 00:18:57;;;;;;;0.60;0.20;;;;;;;;;;5070761;28;20039;-51
2021/10/24 00:21:23;;;;;;;1.13;0.20;;;;;;;;;;5073991;28;20119;-51
2021/10/24 00:23:48;;;;;;;0.68;0.20;;;;;;;;;;5071986;28;20067;-51
2021/10/24 00:26:14;;;;;;;0.95;0.20;;;;;;;;;;5074668;28;20487;-51
2021/10/24 00:28:39;;;;;;;0.13;0.13;;;;;;;;;;5077781;28;20514;-52
2021/10/24 00:31:06;;;;;;;2.20;0.20;;;;;;;;;;5073331;28;20043;-51
2021/10/24 00:33:33;;;;;;;2.95;0.22;;;;;;;;;;5057125;28;20016;-52
2021/10/24 00:35:59;;;;;;;0.90;0.20;;;;;;;;;;5076842;28;20137;-50
2021/10/24 00:38:24;;;;;;;3.03;0.30;;;;;;;;;;5077083;28;20067;-49
2021/10/24 00:40:49;;;;;;;1.50;0.25;;;;;;;;;;5072980;28;20039;-47
2021/10/24 00:43:15;;;;;;;1.45;0.30;;;;;;;;;;5074451;28;20043;-53
2021/10/24 00:45:40;;;;;;;0.68;0.28;;;;;;;;;;5072302;28;20025;-49
2021/10/24 00:48:06;;;;;;;1.55;0.20;;;;;;;;;;5073577;28;20035;-49
2021/10/24 00:50:33;;;;;;;2.42;0.30;;;;;;;;;;5072564;28;20575;-52
2021/10/24 00:52:59;;;;;;;0.45;0.20;;;;;;;;;;5059819;28;20038;-50
2021/10/24 00:55:25;;;;;;;1.25;0.28;;;;;;;;;;5081305;28;20024;-51
2021/10/24 00:57:51;;;;;;;1.67;0.43;;;;;;;;;;5074324;28;20028;-49
2021/10/24 01:00:17;;;;;;;4.40;0.45;;;;;;;;;;5063462;28;20109;-50
2021/10/24 01:02:43;;;;;;;2.30;0.45;;;;;;;;;;5057587;28;20024;-51
2021/10/24 01:05:09;;;;;;;4.18;0.20;;;;;;;;;;5054099;28;20043;-51
2021/10/24 01:07:38;;;;;;;4.20;0.30;;;;;;;;;;5051023;28;20024;-49
2021/10/24 01:10:05;;;;;;;2.28;0.30;;;;;;;;;;5051252;28;20107;-49
2021/10/24 01:12:30;;;;;;;0.70;0.20;;;;;;;;;;5056645;28;20550;-52
2021/10/24 01:14:56;;;;;;;0.47;0.20;;;;;;;;;;5048547;28;20119;-51
2021/10/24 01:17:23;;;;;;;2.72;0.40;;;;;;;;;;5051515;28;20082;-49
2021/10/24 01:19:49;;;;;;;5.05;0.45;;;;;;;;;;5052611;28;20041;-51
2021/10/24 01:22:14;;;;;;;3.25;0.22;;;;;;;;;;5049907;28;20028;-52
2021/10/24 01:24:40;;;;;;;0.52;0.30;;;;;;;;;;5055356;28;20044;-53
2021/10/24 01:27:06;;;;;;;3.30;0.50;;;;;;;;;;5050335;28;20036;-53
2021/10/24 01:29:31;;;;;;;3.00;0.65;;;;;;;;;;5051035;28;20518;-51
2021/10/24 01:31:57;;;;;;;1.52;0.20;;;;;;;;;;5052964;28;20029;-52
2021/10/24 01:34:22;;;;;;;1.50;0.47;;;;;;;;;;5051861;28;20079;-50
2021/10/24 01:36:49;;;;;;;4.05;0.40;;;;;;;;;;5051527;28;20044;-53
2021/10/24 01:39:15;;;;;;;3.35;0.60;;;;;;;;;;5055434;28;20479;-52
2021/10/24 01:41:41;;;;;;;4.90;0.55;;;;;;;;;;5052208;28;20024;-53
2021/10/24 01:44:06;;;;;;;3.88;0.50;;;;;;;;;;5051953;28;20082;-53
2021/10/24 01:46:32;;;;;;;4.07;0.40;;;;;;;;;;5056215;28;20044;-49
2021/10/24 01:48:57;;;;;;;3.17;0.40;;;;;;;;;;5052815;28;20129;-52
2021/10/24 01:51:23;;;;;;;7.88;0.60;;;;;;;;;;5048294;28;20053;-52
2021/10/24 01:53:49;;;;;;;2.17;0.40;;;;;;;;;;5057460;28;20278;-51
2021/10/24 01:56:15;;;;;;;2.55;0.90;;;;;;;;;;5051638;28;20032;-51
2021/10/24 01:58:41;;;;;;;4.13;0.55;;;;;;;;;;5054132;28;20496;-52
2021/10/24 02:01:09;;;;;;;3.63;0.52;;;;;;;;;;5051058;28;20032;-52
2021/10/24 02:03:36;;;;;;;4.07;1.20;;;;;;;;;;5059765;28;20040;-52
2021/10/24 02:06:02;;;;;;;4.93;0.20;;;;;;;;;;5048779;28;20098;-52
2021/10/24 02:08:27;;;;;;;3.40;0.30;;;;;;;;;;5060706;28;20238;-51
2021/10/24 02:10:53;;;;;;;1.40;0.20;;;;;;;;;;5056861;28;20087;-50
2021/10/24 02:13:18;;;;;;;1.80;0.20;;;;;;;;;;5055699;28;20115;-52
2021/10/24 02:15:44;;;;;;;2.65;0.30;;;;;;;;;;5056652;28;20029;-54
2021/10/24 02:18:10;;;;;;;2.20;0.20;;;;;;;;;;5057575;28;20040;-51
2021/10/24 02:20:37;;;;;;;1.98;0.52;;;;;;;;;;5050979;28;20025;-52
2021/10/24 02:23:07;;;;;;;1.42;0.20;;;;;;;;;;5053585;28;20028;-53
2021/10/24 02:25:33;;;;;;;1.35;0.47;;;;;;;;;;5059381;28;20047;-52
2021/10/24 02:28:00;;;;;;;0.80;0.20;;;;;;;;;;5052529;28;20186;-50
2021/10/24 02:30:26;;;;;;;3.05;0.30;;;;;;;;;;5052654;28;20440;-51
2021/10/24 02:32:51;;;;;;;1.27;0.28;;;;;;;;;;5055458;28;20135;-51
2021/10/24 02:35:17;;;;;;;1.40;0.10;;;;;;;;;;5052979;28;20035;-52
2021/10/24 02:37:44;;;;;;;1.90;0.20;;;;;;;;;;5056230;28;20033;-53
2021/10/24 02:40:11;;;;;;;1.02;0.10;;;;;;;;;;5053411;28;20021;-50
2021/10/24 02:42:37;;;;;;;3.70;0.13;;;;;;;;;;5049645;28;20229;-53
2021/10/24 02:45:03;;;;;;;1.35;0.20;;;;;;;;;;5056669;28;20424;-51
2021/10/24 02:47:29;;;;;;;1.35;0.15;;;;;;;;;;5054709;28;20028;-53
2021/10/24 02:49:54;;;;;;;2.25;0.20;;;;;;;;;;5055161;28;20066;-51
2021/10/24 02:52:19;;;;;;;0.65;0.10;;;;;;;;;;5053688;28;20131;-54
2021/10/24 02:54:45;;;;;;;2.85;0.20;;;;;;;;;;5057805;28;20036;-53
2021/10/24 02:57:11;;;;;;;3.00;0.30;;;;;;;;;;5057360;28;20040;-52
2021/10/24 02:59:36;;;;;;;3.30;0.20;;;;;;;;;;5063556;28;20103;-52
2021/10/24 03:02:02;;;;;;;0.63;0.20;;;;;;;;;;5057539;28;20059;-54
2021/10/24 03:04:27;;;;;;;1.90;0.15;;;;;;;;;;5055730;28;20032;-53
2021/10/24 03:06:53;;;;;;;2.35;0.20;;;;;;;;;;5055036;28;20039;-58
2021/10/24 03:09:19;;;;;;;3.45;0.22;;;;;;;;;;5060882;28;20419;-52
2021/10/24 03:11:45;;;;;;;0.35;0.17;;;;;;;;;;5057517;28;20259;-52
2021/10/24 03:14:10;;;;;;;0.82;0.20;;;;;;;;;;5052001;28;20033;-54
2021/10/24 03:16:36;;;;;;;0.10;0.10;;;;;;;;;;5051804;28;20205;-53
2021/10/24 03:19:02;;;;;;;0.30;0.22;;;;;;;;;;5060075;28;20039;-53
2021/10/24 03:21:29;;;;;;;0.20;0.10;;;;;;;;;;5056052;28;20032;-51
2021/10/24 03:23:54;;;;;;;0.90;0.17;;;;;;;;;;5050005;28;20053;-51
2021/10/24 03:26:20;;;;;;;1.80;0.20;;;;;;;;;;5055443;28;20133;-52
2021/10/24 03:28:46;;;;;;;0.38;0.20;;;;;;;;;;5057822;28;20551;-51
2021/10/24 03:31:12;;;;;;;1.35;0.20;;;;;;;;;;5053427;28;20423;-52
2021/10/24 03:33:38;;;;;;;0.65;0.10;;;;;;;;;;5053058;28;20436;-53
2021/10/24 03:36:04;;;;;;;0.80;0.20;;;;;;;;;;5060206;28;20078;-54
2021/10/24 03:38:29;;;;;;;0.85;0.17;;;;;;;;;;5057668;28;20025;-52
2021/10/24 03:40:55;;;;;;;0.50;0.20;;;;;;;;;;5053172;28;20037;-53
2021/10/24 03:43:20;;;;;;;3.40;0.30;;;;;;;;;;5056886;28;20246;-53
2021/10/24 03:45:46;;;;;;;1.08;0.20;;;;;;;;;;5057207;28;20090;-54
2021/10/24 03:48:11;;;;;;;1.58;0.20;;;;;;;;;;5054883;28;20039;-52
2021/10/24 03:50:37;;;;;;;0.88;0.20;;;;;;;;;;5056641;28;20479;-53
2021/10/24 03:53:02;;;;;;;1.27;0.20;;;;;;;;;;5055812;28;20465;-53
2021/10/24 03:55:28;;;;;;;1.77;0.20;;;;;;;;;;5060124;28;20067;-51
2021/10/24 03:57:53;;;;;;;2.83;0.20;;;;;;;;;;5053944;28;20087;-52
2021/10/24 04:00:19;;;;;;;1.67;0.30;;;;;;;;;;5056380;28;20547;-55
2021/10/24 04:03:00;;;;;;;0.17;0.17;;;;;;;;;;5057645;28;20090;-54
2021/10/24 04:05:27;;;;;;;0.65;0.13;;;;;;;;;;5058543;28;20034;-53
2021/10/24 04:07:55;;;;;;;0.30;0.20;;;;;;;;;;5053640;28;20039;-53
2021/10/24 04:10:22;;;;;;;0.15;0.15;;;;;;;;;;5058390;28;20035;-52
2021/10/24 04:12:49;;;;;;;1.77;0.25;;;;;;;;;;5054504;28;20067;-53
2021/10/24 04:15:15;;;;;;;3.13;0.28;;;;;;;;;;5051530;28;20029;-52
2021/10/24 04:17:40;;;;;;;2.05;0.32;;;;;;;;;;5055936;28;20029;-49
2021/10/24 04:20:09;;;;;;;2.53;0.50;;;;;;;;;;5053392;28;20115;-53
2021/10/24 04:22:35;;;;;;;0.70;0.20;;;;;;;;;;5054595;28;20071;-53
2021/10/24 04:25:01;;;;;;;1.85;0.20;;;;;;;;;;5056927;28;20028;-53
2021/10/24 04:27:28;;;;;;;2.90;0.35;;;;;;;;;;5053516;28;20600;-52
2021/10/24 04:29:54;;;;;;;1.52;0.20;;;;;;;;;;5055621;28;20549;-53
2021/10/24 04:32:20;;;;;;;2.40;0.30;;;;;;;;;;5053724;28;20051;-53
2021/10/24 04:34:45;;;;;;;3.08;0.45;;;;;;;;;;5053388;28;20035;-52
2021/10/24 04:37:11;;;;;;;2.55;0.40;;;;;;;;;;5057721;28;20120;-53
2021/10/24 04:39:36;;;;;;;3.53;0.30;;;;;;;;;;5057583;28;20143;-52
2021/10/24 04:42:02;;;;;;;1.40;0.70;;;;;;;;;;5051120;28;20870;-53
2021/10/24 04:44:27;;;;;;;1.42;0.20;;;;;;;;;;5053811;28;20132;-52
2021/10/24 04:46:53;;;;;;;2.42;0.20;;;;;;;;;;5055692;28;20115;-54
2021/10/24 04:49:19;;;;;;;1.10;0.40;;;;;;;;;;5050228;28;20313;-53
2021/10/24 04:51:45;;;;;;;0.47;0.20;;;;;;;;;;5055528;28;20499;-53
2021/10/24 04:54:10;;;;;;;2.70;0.30;;;;;;;;;;5053916;28;20038;-52
2021/10/24 04:56:36;;;;;;;1.23;0.20;;;;;;;;;;5060494;28;20536;-52
2021/10/24 04:59:02;;;;;;;0.70;0.30;;;;;;;;;;5058551;28;20024;-53
2021/10/24 05:01:27;;;;;;;4.35;0.30;;;;;;;;;;5050575;28;20098;-53
2021/10/24 05:03:53;;;;;;;6.47;0.30;;;;;;;;;;5058443;28;20056;-52
2021/10/24 05:06:18;;;;;;;0.98;0.50;;;;;;;;;;5057800;28;20067;-52
2021/10/24 05:08:44;;;;;;;1.48;0.20;;;;;;;;;;5055267;28;20424;-53
2021/10/24 05:11:10;;;;;;;6.55;0.50;;;;;;;;;;5059703;28;20514;-52
2021/10/24 05:13:35;;;;;;;3.92;0.40;;;;;;;;;;5056087;28;20037;-53
2021/10/24 05:16:01;;;;;;;1.63;0.30;;;;;;;;;;5055238;28;20042;-54
2021/10/24 05:18:26;;;;;;;4.85;0.63;;;;;;;;;;5058322;28;20064;-53
2021/10/24 05:20:52;;;;;;;4.78;0.70;;;;;;;;;;5058400;28;20436;-50
2021/10/24 05:23:17;;;;;;;9.65;0.80;;;;;;;;;;5053331;28;20045;-51
2021/10/24 05:25:43;;;;;;;10.15;0.85;;;;;;;;;;5055019;28;20228;-52
2021/10/24 05:28:08;;;;;;;8.02;0.90;;;;;;;;;;5052762;28;20037;-53
2021/10/24 05:30:34;;;;;;;8.10;0.90;;;;;;;;;;5052849;28;20487;-54
2021/10/24 05:32:59;;;;;;;7.65;1.73;;;;;;;;;;5051994;28;20455;-54
2021/10/24 05:35:25;;;;;;;3.92;0.70;;;;;;;;;;5045777;28;20283;-50
2021/10/24 05:37:51;;;;;;;9.02;1.00;;;;;;;;;;5056137;28;20027;-50
2021/10/24 05:40:17;;;;;;;7.80;1.25;;;;;;;;;;5055429;28;20047;-53
2021/10/24 05:42:43;;;;;;;3.72;0.63;;;;;;;;;;5049307;28;20068;-53
2021/10/24 05:45:09;;;;;;;8.38;1.45;;;;;;;;;;5051467;28;20059;-52
2021/10/24 05:47:35;;;;;;;2.65;0.80;;;;;;;;;;5050596;28;20398;-51
2021/10/24 05:50:00;;;;;;;7.40;0.95;;;;;;;;;;5052538;28;20036;-53
2021/10/24 05:52:25;;;;;;;7.85;0.80;;;;;;;;;;5056044;28;20123;-50
2021/10/24 05:54:51;;;;;;;12.57;1.27;;;;;;;;;;5052720;28;20029;-51
2021/10/24 05:57:17;;;;;;;7.63;1.13;;;;;;;;;;5051029;28;20503;-53
2021/10/24 05:59:42;;;;;;;9.25;1.65;;;;;;;;;;5053819;28;20039;-49
2021/10/24 06:02:11;;;;;;;7.80;0.95;;;;;;;;;;5051944;28;20492;-51
2021/10/24 06:04:37;;;;;;;10.30;0.93;;;;;;;;;;5058244;28;20033;-54
2021/10/24 06:07:03;;;;;;;9.57;0.80;;;;;;;;;;5052118;28;20526;-53
2021/10/24 06:09:51;;;;;;;6.57;1.05;;;;;;;;;;5051764;28;20100;-53
2021/10/24 06:12:40;;;;;;;9.27;1.00;;;;;;;;;;5053474;28;20044;-52
2021/10/24 06:15:04;;;;;;;17.38;1.45;;;;;;;;;;5055542;28;20040;-53
2021/10/24 06:17:33;;;;;;;7.65;1.00;;;;;;;;;;5053349;28;20035;-51
2021/10/24 06:19:59;;;;;;;16.83;1.58;;;;;;;;;;5051987;28;20082;-53
2021/10/24 06:22:26;;;;;;;10.57;1.15;;;;;;;;;;5058458;28;20032;-54
2021/10/24 06:24:52;;;;;;;9.48;1.15;;;;;;;;;;5063129;28;20542;-53
2021/10/24 06:27:17;;;;;;;13.80;1.25;;;;;;;;;;5057354;28;22433;-51
2021/10/24 06:29:43;;;;;;;16.58;1.38;;;;;;;;;;5061443;28;20411;-52
2021/10/24 06:32:08;;;;;;;13.40;2.28;;;;;;;;;;5057539;28;20067;-51
2021/10/24 06:34:34;;;;;;;9.35;1.20;;;;;;;;;;5059119;28;20287;-50
2021/10/24 06:36:59;;;;;;;10.40;1.38;;;;;;;;;;5054459;28;20079;-51
2021/10/24 06:39:25;;;;;;;11.13;1.33;;;;;;;;;;5060121;28;20115;-51
2021/10/24 06:41:51;;;;;;;6.88;1.02;;;;;;;;;;5050611;28;20091;-51
2021/10/24 06:44:16;;;;;;;20.15;2.65;;;;;;;;;;5060235;28;20462;-51
2021/10/24 06:46:42;;;;;;;11.10;1.58;;;;;;;;;;5054115;28;20048;-51
2021/10/24 06:49:08;;;;;;;9.88;1.13;;;;;;;;;;5056377;28;20040;-50
2021/10/24 06:51:33;;;;;;;7.00;0.82;;;;;;;;;;5057926;28;20420;-53
2021/10/24 06:54:00;;;;;;;11.15;2.15;;;;;;;;;;5058868;28;20403;-53
2021/10/24 06:56:25;;;;;;;10.00;1.20;;;;;;;;;;5055955;28;20086;-52
2021/10/24 06:58:50;;;;;;;10.00;1.30;;;;;;;;;;5064164;28;20466;-49
2021/10/24 07:01:16;;;;;;;11.25;1.33;;;;;;;;;;5055990;28;20517;-52
2021/10/24 07:03:42;;;;;;;11.38;1.25;;;;;;;;;;5059159;28;20041;-49
2021/10/24 07:06:07;;;;;;;10.88;1.13;;;;;;;;;;5058587;28;20040;-51
2021/10/24 07:08:33;;;;;;;12.13;1.50;;;;;;;;;;5055921;28;20411;-51
2021/10/24 07:10:58;;;;;;;17.02;1.75;;;;;;;;;;5061600;28;20082;-50
2021/10/24 07:13:24;;;;;;;7.82;1.20;;;;;;;;;;5055370;28;20048;-52
2021/10/24 07:15:50;;;;;;;10.50;1.30;;;;;;;;;;5057352;28;20495;-52
2021/10/24 07:18:15;;;;;;;10.02;1.40;;;;;;;;;;5056303;28;20044;-51
2021/10/24 07:20:41;;;;;;;15.43;2.53;;;;;;;;;;5055935;28;20617;-51
2021/10/24 07:23:06;;;;;;;8.82;1.10;;;;;;;;;;5063223;28;20489;-53
2021/10/24 07:25:32;;;;;;;23.00;2.13;;;;;;;;;;5058448;28;20119;-51
2021/10/24 07:27:57;;;;;;;19.45;1.73;;;;;;;;;;5051950;28;20159;-52
2021/10/24 07:30:23;;;;;;;16.17;1.60;;;;;;;;;;5058901;28;20119;-53
2021/10/24 07:32:48;;;;;;;22.67;1.92;;;;;;;;;;5059675;28;20390;-52
2021/10/24 07:35:14;;;;;;;10.48;1.45;;;;;;;;;;5050827;28;20570;-52
2021/10/24 07:37:41;;;;;;;16.77;1.77;;;;;;;;;;5057853;28;20102;-51
2021/10/24 07:40:07;;;;;;;20.58;1.60;;;;;;;;;;5057884;28;20525;-51
2021/10/24 07:42:33;;;;;;;17.20;1.63;;;;;;;;;;5053419;28;20710;-53
2021/10/24 07:44:58;;;;;;;19.80;2.47;;;;;;;;;;5055569;28;20025;-50
2021/10/24 07:47:32;;;;;;;18.80;1.40;;;;;;;;;;5053120;28;20037;-52
2021/10/24 07:49:59;;;;;;;10.90;1.30;;;;;;;;;;5053467;28;20117;-52
2021/10/24 07:52:25;;;;;;;14.57;1.48;;;;;;;;;;5058139;28;20068;-50
2021/10/24 07:54:50;;;;;;;13.38;1.80;;;;;;;;;;5053812;28;20520;-52
2021/10/24 07:57:15;;;;;;;11.27;1.77;;;;;;;;;;5059060;28;20037;-51
2021/10/24 07:59:41;;;;;;;16.83;1.73;;;;;;;;;;5053064;28;20051;-51
2021/10/24 08:02:11;;;;;;;13.20;1.30;;;;;;;;;;5052271;28;20029;-52
2021/10/24 08:04:36;;;;;;;15.30;1.75;;;;;;;;;;5053706;28;20043;-52
2021/10/24 08:07:03;;;;;;;9.77;1.25;;;;;;;;;;5052389;28;20127;-52
2021/10/24 08:09:30;;;;;;;17.25;2.60;;;;;;;;;;5051567;28;20020;-53
2021/10/24 08:11:56;;;;;;;15.68;1.40;;;;;;;;;;5055099;28;20074;-51
2021/10/24 08:14:22;;;;;;;14.10;1.33;;;;;;;;;;5054483;28;20071;-52
2021/10/24 08:16:48;;;;;;;11.77;2.15;;;;;;;;;;5051606;28;20470;-51
2021/10/24 08:19:15;;;;;;;15.27;1.90;;;;;;;;;;5051547;28;20072;-49
2021/10/24 08:21:41;;;;;;;16.13;1.65;;;;;;;;;;5051435;28;20108;-48
2021/10/24 08:24:06;;;;;;;15.65;1.98;;;;;;;;;;5051606;28;20115;-52
2021/10/24 08:26:32;;;;;;;10.65;1.10;;;;;;;;;;5052741;28;20075;-52
2021/10/24 08:28:58;;;;;;;16.60;2.83;;;;;;;;;;5053094;28;20029;-50
2021/10/24 08:31:26;;;;;;;15.05;1.60;;;;;;;;;;5050899;28;20029;-52
2021/10/24 08:33:53;;;;;;;23.65;1.85;;;;;;;;;;5057794;28;20033;-53
2021/10/24 08:36:19;;;;;;;14.63;1.45;;;;;;;;;;5053312;28;20476;-56
2021/10/24 08:38:45;;;;;;;17.77;1.90;;;;;;;;;;5062145;28;20550;-52
2021/10/24 08:41:12;;;;;;;15.05;1.92;;;;;;;;;;5051517;28;20061;-53
2021/10/24 08:43:40;;;;;;;18.33;2.08;;;;;;;;;;5058646;28;20029;-52
2021/10/24 08:46:07;;;;;;;19.30;2.78;;;;;;;;;;5058764;28;20027;-53
2021/10/24 08:48:34;;;;;;;18.00;1.85;;;;;;;;;;5052081;28;20045;-51
2021/10/24 08:51:03;;;;;;;11.68;1.88;;;;;;;;;;5052806;28;20044;-54
2021/10/24 08:53:29;;;;;;;20.88;1.70;;;;;;;;;;5053404;28;20047;-55
2021/10/24 08:55:56;;;;;;;21.85;1.38;;;;;;;;;;5050930;28;20484;-53
2021/10/24 08:58:21;;;;;;;13.82;1.38;;;;;;;;;;5049337;28;20051;-53
2021/10/24 09:00:52;;;;;;;16.48;1.45;;;;;;;;;;5058677;28;20515;-49
2021/10/24 09:03:17;;;;;;;23.83;1.63;;;;;;;;;;5055035;28;20043;-52
2021/10/24 09:05:46;;;;;;;16.25;1.67;;;;;;;;;;5059661;28;20032;-52
2021/10/24 09:08:22;;;;;;;16.92;1.77;;;;;;;;;;5059060;28;20484;-50
2021/10/24 09:10:49;;;;;;;10.10;1.08;;;;;;;;;;5065239;28;20078;-52
2021/10/24 09:13:22;;;;;;;10.07;1.05;;;;;;;;;;5063813;28;20104;-50
2021/10/24 09:15:53;;;;;;;13.95;1.30;;;;;;;;;;5057043;28;20028;-51
2021/10/24 09:18:30;;;;;;;12.68;1.50;;;;;;;;;;5062088;28;20036;-52
2021/10/24 09:20:56;;;;;;;11.50;1.65;;;;;;;;;;5062498;28;20379;-52
2021/10/24 09:23:22;;;;;;;21.58;2.15;;;;;;;;;;5057309;28;20555;-52
2021/10/24 09:25:49;;;;;;;17.83;1.73;;;;;;;;;;5062826;28;20166;-52
2021/10/24 09:28:20;;;;;;;17.65;2.00;;;;;;;;;;5063458;28;20029;-51
2021/10/24 09:30:47;;;;;;;17.30;2.27;;;;;;;;;;5063214;28;20053;-52
2021/10/24 09:33:13;;;;;;;10.38;1.38;;;;;;;;;;5059207;28;20021;-51
2021/10/24 09:35:46;;;;;;;20.60;2.20;;;;;;;;;;5062201;28;20483;-52
2021/10/24 09:38:16;;;;;;;18.40;1.85;;;;;;;;;;5057201;28;20036;-52
2021/10/24 09:40:47;;;;;;;23.13;2.15;;;;;;;;;;5055690;28;20032;-52
2021/10/24 09:43:24;;;;;;;18.98;1.73;;;;;;;;;;5051879;28;20025;-52
2021/10/24 09:45:56;;;;;;;24.85;2.13;;;;;;;;;;5054492;28;20027;-53
2021/10/24 09:48:23;;;;;;;20.55;1.92;;;;;;;;;;5055009;28;20037;-49
2021/10/24 09:50:54;;;;;;;20.98;1.65;;;;;;;;;;5058622;28;20053;-52
2021/10/24 09:53:27;;;;;;;11.93;1.58;;;;;;;;;;5052827;28;20028;-53
2021/10/24 09:55:52;;;;;;;17.60;1.50;;;;;;;;;;5055551;28;20052;-50
2021/10/24 09:58:18;;;;;;;20.90;1.25;;;;;;;;;;5055835;28;20459;-49
2021/10/24 10:00:44;;;;;;;14.23;1.60;;;;;;;;;;5057381;28;20111;-49
2021/10/24 10:03:10;;;;;;;15.18;1.73;;;;;;;;;;5058579;28;20491;-49
2021/10/24 10:05:39;;;;;;;20.95;1.65;;;;;;;;;;5057056;28;20047;-50
2021/10/24 10:08:10;;;;;;;17.25;1.60;;;;;;;;;;5062144;28;20051;-50
2021/10/24 10:10:48;;;;;;;11.13;1.35;;;;;;;;;;5051271;28;20454;-51
2021/10/24 10:13:17;;;;;;;15.45;1.83;;;;;;;;;;5052455;28;20094;-51
2021/10/24 10:15:47;;;;;;;19.92;2.03;;;;;;;;;;5054953;28;20040;-50
2021/10/24 10:18:13;;;;;;;10.68;1.25;;;;;;;;;;5051313;28;20036;-53
2021/10/24 10:20:46;;;;;;;13.50;1.80;;;;;;;;;;5050486;28;20033;-52
2021/10/24 10:23:13;;;;;;;18.02;2.60;;;;;;;;;;5052236;28;20033;-52
2021/10/24 10:25:40;;;;;;;9.52;1.20;;;;;;;;;;5051225;28;20045;-52
2021/10/24 10:28:07;;;;;;;14.48;1.98;;;;;;;;;;5056776;28;20642;-52
2021/10/24 10:30:45;;;;;;;18.20;1.90;;;;;;;;;;5049766;28;20032;-52
2021/10/24 10:33:34;;;;;;;10.98;1.65;;;;;;;;;;5051792;28;20124;-51
2021/10/24 10:36:06;;;;;;;11.88;1.50;;;;;;;;;;5051799;28;20060;-50
2021/10/24 10:38:37;;;;;;;12.30;1.27;;;;;;;;;;5053445;28;20037;-51
2021/10/24 10:41:04;;;;;;;7.32;1.00;;;;;;;;;;5053074;28;20408;-50
2021/10/24 10:43:32;;;;;;;15.52;1.60;;;;;;;;;;5056693;28;20028;-52
2021/10/24 10:46:02;;;;;;;13.27;1.48;;;;;;;;;;5054262;28;20029;-51
2021/10/24 10:49:17;;;;;;;15.07;1.60;;;;;;;;;;5050804;28;20544;-55
2021/10/24 10:51:42;;;;;;;15.75;1.30;;;;;;;;;;5051434;28;20052;-54
2021/10/24 10:54:09;;;;;;;14.38;2.20;;;;;;;;;;5048534;28;20040;-55
2021/10/24 10:56:48;;;;;;;14.93;1.90;;;;;;;;;;5057205;28;20036;-54
2021/10/24 10:59:29;;;;;;;18.42;4.07;;;;;;;;;;5050195;28;20028;-54
2021/10/24 11:02:18;;;;;;;13.88;2.05;;;;;;;;;;5047837;28;20107;-51
2021/10/24 11:04:48;;;;;;;11.50;1.25;;;;;;;;;;5051543;28;20389;-55
2021/10/24 11:07:40;;;;;;;10.70;0.98;;;;;;;;;;5060166;28;20434;-55
2021/10/24 11:10:08;;;;;;;13.63;1.60;;;;;;;;;;5055417;28;20023;-54
2021/10/24 11:12:37;;;;;;;19.58;3.00;;;;;;;;;;5069287;28;20037;-54
2021/10/24 11:15:26;;;;;;;12.93;1.25;;;;;;;;;;5072636;28;20028;-54
2021/10/24 11:17:51;;;;;;;13.30;1.77;;;;;;;;;;5073348;28;20423;-55
2021/10/24 11:20:23;;;;;;;11.02;1.63;;;;;;;;;;5070494;28;20036;-54
2021/10/24 11:22:53;;;;;;;15.93;1.42;;;;;;;;;;5065597;28;20028;-54
2021/10/24 11:25:36;;;;;;;16.92;2.13;;;;;;;;;;5066325;28;20070;-55
2021/10/24 11:28:14;;;;;;;10.25;1.30;;;;;;;;;;5073994;28;20073;-54
2021/10/24 11:30:41;;;;;;;17.63;1.60;;;;;;;;;;5065800;28;20021;-54
2021/10/24 11:33:07;;;;;;;11.75;1.05;;;;;;;;;;5065770;28;20521;-54
2021/10/24 11:35:35;;;;;;;11.93;1.73;;;;;;;;;;5069962;28;20115;-55
2021/10/24 11:38:05;;;;;;;8.38;1.27;;;;;;;;;;5072650;28;20392;-55
2021/10/24 11:40:33;;;;;;;12.60;1.85;;;;;;;;;;5055578;28;20025;-56
2021/10/24 11:43:19;;;;;;;12.95;1.60;;;;;;;;;;5053402;28;20025;-56
2021/10/24 11:45:48;;;;;;;9.23;1.38;;;;;;;;;;5055374;28;20047;-56
2021/10/24 11:48:17;;;;;;;14.80;1.50;;;;;;;;;;5058682;28;20025;-56
2021/10/24 11:50:52;;;;;;;12.10;1.38;;;;;;;;;;5058048;28;20056;-56
2021/10/24 11:53:33;;;;;;;9.63;1.20;;;;;;;;;;5052146;28;20507;-54
2021/10/24 11:56:11;;;;;;;11.98;1.00;;;;;;;;;;5058109;28;20033;-54
2021/10/24 12:01:19;;;;;;;6.90;1.17;;;;;;;;;;5060434;28;20507;-55
2021/10/24 12:04:05;;;;;;;11.13;1.35;;;;;;;;;;5062025;28;20024;-55
2021/10/24 12:06:51;;;;;;;11.98;1.58;;;;;;;;;;5060197;28;20029;-56
2021/10/24 12:09:40;;;;;;;12.95;1.48;;;;;;;;;;5053454;28;20146;-56
2021/10/24 12:12:26;;;;;;;9.93;1.50;;;;;;;;;;5057376;28;20028;-56
2021/10/24 12:14:54;;;;;;;11.02;1.70;;;;;;;;;;5053563;28;20028;-56
2021/10/24 12:17:23;;;;;;;8.20;1.60;;;;;;;;;;5061963;28;20032;-56
2021/10/24 12:20:08;;;;;;;7.93;1.00;;;;;;;;;;5059580;28;20541;-56
2021/10/24 12:22:42;;;;;;;8.73;1.40;;;;;;;;;;5052645;28;20079;-56
2021/10/24 12:25:11;;;;;;;10.70;1.70;;;;;;;;;;5050572;28;20078;-54
2021/10/24 12:27:38;;;;;;;3.65;0.73;;;;;;;;;;5052216;28;20056;-55
2021/10/24 12:30:10;;;;;;;8.50;1.52;;;;;;;;;;5052347;28;20032;-55
2021/10/24 12:32:51;;;;;;;11.85;1.50;;;;;;;;;;5051797;28;20017;-55
2021/10/24 12:35:17;;;;;;;6.25;0.93;;;;;;;;;;5056494;28;20541;-53
2021/10/24 12:37:43;;;;;;;10.50;1.40;;;;;;;;;;5057374;28;20037;-55
2021/10/24 12:40:32;;;;;;;8.10;1.38;;;;;;;;;;5053591;28;20495;-54
2021/10/24 12:43:05;;;;;;;8.73;1.30;;;;;;;;;;5053723;28;20028;-55
2021/10/24 12:45:44;;;;;;;8.68;1.40;;;;;;;;;;5056552;28;20063;-55
2021/10/24 12:48:10;;;;;;;7.05;1.15;;;;;;;;;;5055520;28;20025;-55
2021/10/24 12:50:37;;;;;;;8.75;1.08;;;;;;;;;;5058784;28;20565;-55
2021/10/24 12:53:08;;;;;;;7.88;1.30;;;;;;;;;;5056965;28;20183;-55
2021/10/24 12:55:35;;;;;;;6.72;1.10;;;;;;;;;;5054538;28;20043;-54
2021/10/24 12:58:01;;;;;;;9.20;1.15;;;;;;;;;;5052245;28;20043;-54
2021/10/24 13:00:30;;;;;;;10.48;1.30;;;;;;;;;;5058842;28;20028;-53
2021/10/24 13:02:57;;;;;;;4.90;1.17;;;;;;;;;;5059291;28;20036;-53
2021/10/24 13:05:25;;;;;;;8.60;1.10;;;;;;;;;;5066592;28;20037;-55
2021/10/24 13:07:51;;;;;;;10.32;0.93;;;;;;;;;;5054636;28;20041;-54
2021/10/24 13:10:16;;;;;;;10.40;1.33;;;;;;;;;;5053071;28;20025;-55
2021/10/24 13:12:42;;;;;;;15.68;1.30;;;;;;;;;;5057898;28;20518;-54
2021/10/24 13:15:08;;;;;;;8.63;0.93;;;;;;;;;;5055798;28;20029;-54
2021/10/24 13:17:33;;;;;;;9.00;0.98;;;;;;;;;;5057038;28;20499;-53
2021/10/24 13:19:59;;;;;;;5.97;1.15;;;;;;;;;;5054814;28;20025;-54
2021/10/24 13:25:09;;;;;;;7.07;1.00;;;;;;;;;;5060641;28;20568;-51
2021/10/24 13:27:34;;;;;;;6.95;0.85;;;;;;;;;;5056738;28;20063;-53
2021/10/24 13:30:00;;;;;;;8.75;1.13;;;;;;;;;;5061843;28;20052;-53
2021/10/24 13:32:25;;;;;;;6.43;1.30;;;;;;;;;;5055491;28;20387;-54
2021/10/24 13:34:51;;;;;;;12.35;0.93;;;;;;;;;;5056623;28;20033;-53
2021/10/24 13:37:16;;;;;;;8.18;1.20;;;;;;;;;;5063391;28;20433;-53
2021/10/24 13:39:42;;;;;;;6.07;1.10;;;;;;;;;;5057685;28;20521;-55
2021/10/24 13:42:07;;;;;;;10.88;1.35;;;;;;;;;;5057164;28;20171;-54
2021/10/24 13:44:33;;;;;;;5.15;1.25;;;;;;;;;;5062179;28;20479;-54
2021/10/24 13:46:58;;;;;;;8.52;1.40;;;;;;;;;;5060472;28;20162;-53
2021/10/24 13:49:24;;;;;;;7.50;1.25;;;;;;;;;;5056176;28;20068;-54
2021/10/24 13:51:49;;;;;;;6.72;1.20;;;;;;;;;;5059498;28;20052;-54
2021/10/24 13:54:15;;;;;;;4.85;0.98;;;;;;;;;;5057326;28;20075;-55
2021/10/24 13:56:40;;;;;;;9.35;1.92;;;;;;;;;;5066800;28;20399;-53
2021/10/24 13:59:06;;;;;;;11.45;1.50;;;;;;;;;;5054204;28;20497;-53
2021/10/24 14:01:31;;;;;;;14.70;1.33;;;;;;;;;;5055246;28;20020;-53
2021/10/24 14:03:58;;;;;;;9.27;0.98;;;;;;;;;;5052861;28;20037;-54
2021/10/24 14:06:26;;;;;;;7.07;1.23;;;;;;;;;;5054630;28;20039;-55
2021/10/24 14:08:52;;;;;;;5.82;1.20;;;;;;;;;;5049379;28;20159;-53
2021/10/24 14:11:19;;;;;;;8.68;1.20;;;;;;;;;;5056422;28;20028;-54
2021/10/24 14:13:48;;;;;;;12.20;1.80;;;;;;;;;;5055138;28;20025;-52
2021/10/24 14:16:14;;;;;;;9.32;1.10;;;;;;;;;;5061452;28;20497;-53
2021/10/24 14:18:40;;;;;;;5.47;0.77;;;;;;;;;;5059253;28;20488;-52
2021/10/24 14:21:06;;;;;;;6.28;1.15;;;;;;;;;;5056140;28;20108;-52
2021/10/24 14:23:33;;;;;;;6.68;1.13;;;;;;;;;;5054187;28;20063;-54
2021/10/24 14:25:59;;;;;;;8.27;1.20;;;;;;;;;;5053583;28;20045;-54
2021/10/24 14:28:25;;;;;;;14.27;1.45;;;;;;;;;;5055786;28;20032;-53
2021/10/24 14:30:50;;;;;;;5.38;1.05;;;;;;;;;;5052476;28;20029;-55
2021/10/24 14:33:16;;;;;;;5.97;0.77;;;;;;;;;;5049659;28;20108;-52
2021/10/24 14:35:41;;;;;;;11.57;1.10;;;;;;;;;;5054201;28;20051;-51
2021/10/24 14:38:09;;;;;;;13.30;2.20;;;;;;;;;;5055222;28;20040;-51
2021/10/24 14:40:34;;;;;;;7.82;1.55;;;;;;;;;;5055791;28;20029;-53
2021/10/24 14:43:00;;;;;;;11.32;1.20;;;;;;;;;;5054520;28;20020;-54
2021/10/24 14:45:26;;;;;;;7.95;1.00;;;;;;;;;;5060201;28;20048;-53
2021/10/24 14:47:51;;;;;;;7.32;1.15;;;;;;;;;;5062148;28;20028;-52